Time;durP1;ratioP1;P1;durP2;ratioP2;P2;SDS_P1;SDS_P2;PMS_P1;PMS_P2;Temp;Humidity;BMP_temperature;BMP_pressure;BME280_temperature;BME280_humidity;BME280_pressure;Samples;Min_cycle;Max_cycle;Signal;HPM_P1;HPM_P2
2022/06/07 00:01:36;;;;;;;1.20;1.00;;;15.30;84.90;;;;;;5095124;28;20462;-59
2022/06/07 00:04:05;;;;;;;2.50;0.90;;;15.20;84.70;;;;;;5094990;28;20438;-58
2022/06/07 00:06:33;;;;;;;1.23;1.00;;;15.20;84.70;;;;;;5094975;28;20499;-60
2022/06/07 00:09:00;;;;;;;1.00;0.70;;;15.10;84.40;;;;;;5095432;28;20891;-59
2022/06/07 00:11:27;;;;;;;1.67;0.80;;;15.10;84.50;;;;;;5094775;28;20848;-59
2022/06/07 00:13:55;;;;;;;1.10;0.70;;;15.00;84.70;;;;;;5094953;28;20482;-59
2022/06/07 00:16:22;;;;;;;1.90;0.70;;;15.00;84.80;;;;;;5095103;28;20496;-59
2022/06/07 00:18:49;;;;;;;1.67;0.80;;;15.00;85.00;;;;;;5095124;28;20507;-58
2022/06/07 00:21:18;;;;;;;0.80;0.70;;;14.90;85.10;;;;;;5094959;28;20474;-59
2022/06/07 00:23:45;;;;;;;1.00;0.83;;;14.90;85.40;;;;;;5094701;28;20525;-60
2022/06/07 00:26:13;;;;;;;1.60;0.80;;;14.80;85.60;;;;;;5098099;28;20495;-59
2022/06/07 00:28:40;;;;;;;1.70;0.70;;;14.80;86.00;;;;;;5098295;28;20536;-59
2022/06/07 00:31:08;;;;;;;1.07;0.70;;;14.70;86.30;;;;;;5098694;28;20483;-60
2022/06/07 00:33:35;;;;;;;2.80;0.83;;;14.70;86.70;;;;;;5097583;28;20526;-60
2022/06/07 00:36:02;;;;;;;2.70;0.80;;;14.60;86.80;;;;;;5097484;28;20492;-57
2022/06/07 00:38:32;;;;;;;2.37;1.10;;;14.60;87.10;;;;;;5097628;28;20899;-61
2022/06/07 00:41:00;;;;;;;1.93;1.50;;;14.60;87.40;;;;;;5097108;28;20452;-59
2022/06/07 00:43:27;;;;;;;1.83;1.63;;;14.60;87.80;;;;;;5096819;28;20477;-60
2022/06/07 00:45:54;;;;;;;1.70;1.60;;;14.50;88.10;;;;;;5097490;28;20925;-58
2022/06/07 00:48:22;;;;;;;1.87;1.20;;;14.60;88.60;;;;;;5097201;28;20960;-59
2022/06/07 00:50:53;;;;;;;5.03;1.50;;;14.60;88.60;;;;;;5097481;28;20450;-59
2022/06/07 00:53:27;;;;;;;3.50;1.40;;;14.60;88.70;;;;;;5097565;28;20476;-60
2022/06/07 00:55:56;;;;;;;2.40;1.37;;;14.60;89.00;;;;;;5097881;28;20511;-59
2022/06/07 00:58:26;;;;;;;2.93;1.40;;;14.60;89.10;;;;;;5097520;28;20450;-58
2022/06/07 01:00:53;;;;;;;1.33;1.23;;;14.60;89.20;;;;;;5098016;28;20908;-60
2022/06/07 01:03:22;;;;;;;2.23;2.00;;;14.60;89.20;;;;;;5098289;28;20477;-59
2022/06/07 01:05:50;;;;;;;2.90;1.60;;;14.70;89.30;;;;;;5097247;28;20485;-59
2022/06/07 01:11:05;;;;;;;1.53;1.27;;;14.80;89.50;;;;;;5096966;28;20456;-59
2022/06/07 01:13:34;;;;;;;1.60;1.50;;;14.80;89.50;;;;;;5097263;28;20514;-60
2022/06/07 01:16:04;;;;;;;2.37;1.50;;;14.80;89.40;;;;;;5097672;28;20485;-61
2022/06/07 01:18:32;;;;;;;1.70;1.40;;;14.80;89.40;;;;;;5097465;28;20517;-59
2022/06/07 01:21:21;;;;;;;1.60;1.30;;;14.80;89.60;;;;;;5098755;28;20458;-60
2022/06/07 01:23:49;;;;;;;2.83;1.30;;;14.80;89.80;;;;;;5098530;28;20427;-59
2022/06/07 01:26:16;;;;;;;2.40;1.07;;;14.70;90.00;;;;;;5097007;28;20475;-59
2022/06/07 01:28:44;;;;;;;2.07;1.30;;;14.70;90.20;;;;;;5097261;28;20497;-60
2022/06/07 01:31:11;;;;;;;2.30;1.00;;;14.70;90.30;;;;;;5098184;28;20449;-60
2022/06/07 01:33:39;;;;;;;1.93;1.23;;;14.70;90.50;;;;;;5098218;28;20507;-59
2022/06/07 01:36:10;;;;;;;1.53;1.10;;;14.70;90.50;;;;;;5096848;28;20551;-59
2022/06/07 01:38:40;;;;;;;1.73;1.63;;;14.70;90.70;;;;;;5097321;28;20769;-59
2022/06/07 01:43:54;;;;;;;3.10;2.07;;;14.80;90.70;;;;;;5096938;28;20402;-60
2022/06/07 01:46:21;;;;;;;2.77;2.17;;;14.80;90.60;;;;;;5096541;28;20444;-59
2022/06/07 01:48:49;;;;;;;1.97;1.87;;;14.80;90.70;;;;;;5097047;28;20495;-59
2022/06/07 01:51:17;;;;;;;2.00;1.80;;;14.80;90.70;;;;;;5097012;28;20438;-59
2022/06/07 01:53:46;;;;;;;2.40;1.90;;;14.80;90.80;;;;;;5097523;28;20506;-59
2022/06/07 01:56:16;;;;;;;1.80;1.70;;;14.80;90.80;;;;;;5096633;28;20997;-58
2022/06/07 01:58:45;;;;;;;3.43;1.80;;;14.80;90.80;;;;;;5096563;28;20533;-59
2022/06/07 02:01:13;;;;;;;2.80;1.83;;;14.80;90.80;;;;;;5096020;28;20491;-59
2022/06/07 02:03:41;;;;;;;2.53;1.70;;;14.80;90.80;;;;;;5095975;28;20446;-58
2022/06/07 02:06:11;;;;;;;2.43;1.93;;;14.80;90.80;;;;;;5095649;28;20442;-59
2022/06/07 02:08:40;;;;;;;2.63;1.53;;;14.80;90.90;;;;;;5096064;28;20442;-59
2022/06/07 02:11:11;;;;;;;2.10;1.50;;;14.80;90.90;;;;;;5096016;28;20476;-59
2022/06/07 02:13:38;;;;;;;2.30;1.33;;;14.80;91.00;;;;;;5096003;28;20431;-59
2022/06/07 02:16:07;;;;;;;1.73;1.63;;;14.70;90.90;;;;;;5095954;28;20478;-58
2022/06/07 02:18:35;;;;;;;1.90;1.40;;;14.70;91.00;;;;;;5095722;28;20983;-58
2022/06/07 02:21:02;;;;;;;2.20;1.93;;;14.70;91.00;;;;;;5095640;28;20447;-60
2022/06/07 02:23:31;;;;;;;1.70;1.57;;;14.70;91.00;;;;;;5095526;28;20462;-58
2022/06/07 02:26:02;;;;;;;3.37;1.60;;;14.70;91.10;;;;;;5095247;28;20938;-58
2022/06/07 02:28:35;;;;;;;2.17;1.97;;;14.70;91.50;;;;;;5095082;28;20430;-59
2022/06/07 02:31:05;;;;;;;1.73;1.63;;;14.70;91.30;;;;;;5094995;28;20465;-58
2022/06/07 02:33:34;;;;;;;2.10;1.77;;;14.60;91.40;;;;;;5095332;28;20551;-58
2022/06/07 02:36:02;;;;;;;1.83;1.73;;;14.60;91.50;;;;;;5095514;28;20481;-59
2022/06/07 02:38:29;;;;;;;2.87;1.80;;;14.60;91.70;;;;;;5095226;28;20446;-59
2022/06/07 02:40:56;;;;;;;2.47;2.17;;;14.60;91.90;;;;;;5095429;28;20496;-58
2022/06/07 02:43:24;;;;;;;2.63;1.90;;;14.60;92.00;;;;;;5094964;28;20993;-58
2022/06/07 02:45:53;;;;;;;2.20;1.90;;;14.70;92.10;;;;;;5095458;28;20999;-59
2022/06/07 02:48:20;;;;;;;4.40;1.80;;;14.70;92.10;;;;;;5094223;28;20449;-59
2022/06/07 02:50:47;;;;;;;2.50;2.30;;;14.70;92.00;;;;;;5094803;28;20948;-59
2022/06/07 02:53:14;;;;;;;3.00;2.40;;;14.80;92.10;;;;;;5095025;28;20874;-59
2022/06/07 02:55:42;;;;;;;2.67;2.07;;;14.80;92.00;;;;;;5094762;28;20993;-58
2022/06/07 02:58:09;;;;;;;2.70;2.10;;;14.80;92.00;;;;;;5095844;28;20503;-60
2022/06/07 03:00:36;;;;;;;3.07;2.30;;;14.90;92.00;;;;;;5095994;28;20449;-60
2022/06/07 03:03:06;;;;;;;2.83;2.20;;;14.90;92.10;;;;;;5095771;28;20516;-58
2022/06/07 03:05:33;;;;;;;2.63;2.00;;;14.90;92.10;;;;;;5095354;28;20447;-59
2022/06/07 03:08:00;;;;;;;4.83;2.20;;;14.90;92.20;;;;;;5095451;28;20498;-59
2022/06/07 03:10:27;;;;;;;2.77;2.10;;;14.90;92.30;;;;;;5094940;28;20496;-59
2022/06/07 03:12:55;;;;;;;3.60;2.20;;;14.90;92.30;;;;;;5094998;28;20503;-59
2022/06/07 03:15:22;;;;;;;2.30;2.10;;;14.90;92.40;;;;;;5094545;28;20474;-59
2022/06/07 03:17:49;;;;;;;2.70;2.20;;;14.90;92.50;;;;;;5094554;28;20476;-58
2022/06/07 03:20:18;;;;;;;3.63;1.63;;;14.90;92.60;;;;;;5094717;28;20450;-59
2022/06/07 03:22:45;;;;;;;2.43;1.87;;;14.80;92.70;;;;;;5094762;28;20462;-59
2022/06/07 03:25:13;;;;;;;2.67;1.73;;;14.80;92.80;;;;;;5094863;28;20445;-58
2022/06/07 03:27:41;;;;;;;4.60;2.00;;;14.70;92.90;;;;;;5095037;28;20442;-59
2022/06/07 03:30:11;;;;;;;2.10;1.80;;;14.70;93.10;;;;;;5095226;28;20499;-59
2022/06/07 03:32:39;;;;;;;6.20;2.33;;;14.60;93.30;;;;;;5094290;28;20518;-58
2022/06/07 03:35:07;;;;;;;3.10;2.20;;;14.70;93.80;;;;;;5094306;28;20510;-59
2022/06/07 03:37:36;;;;;;;2.40;2.17;;;14.70;93.70;;;;;;5094178;28;20960;-59
2022/06/07 03:40:05;;;;;;;3.17;2.40;;;14.60;93.80;;;;;;5094201;28;20450;-59
2022/06/07 03:42:32;;;;;;;2.97;2.77;;;14.60;93.90;;;;;;5118025;22;20539;-59
2022/06/07 03:44:59;;;;;;;2.77;2.57;;;14.70;94.10;;;;;;5093814;28;20454;-59
2022/06/07 03:47:27;;;;;;;3.17;2.43;;;14.70;94.20;;;;;;5094577;28;20438;-59
2022/06/07 03:49:54;;;;;;;2.60;2.20;;;14.70;94.10;;;;;;5094187;28;20442;-59
2022/06/07 03:52:22;;;;;;;2.97;2.40;;;14.80;94.20;;;;;;5094104;28;20465;-59
2022/06/07 03:54:50;;;;;;;4.60;2.30;;;14.80;94.10;;;;;;5093575;28;20513;-59
2022/06/07 03:57:18;;;;;;;5.17;2.33;;;14.80;94.10;;;;;;5093140;28;20464;-59
2022/06/07 03:59:45;;;;;;;2.60;2.40;;;14.90;94.10;;;;;;5093160;28;20477;-59
2022/06/07 04:02:14;;;;;;;2.87;2.60;;;15.00;94.00;;;;;;5093091;28;21047;-59
2022/06/07 04:04:41;;;;;;;2.83;2.50;;;15.10;93.90;;;;;;5093458;28;20452;-59
2022/06/07 04:09:52;;;;;;;3.90;2.60;;;15.20;93.40;;;;;;5131823;27;21002;-57
2022/06/07 04:12:20;;;;;;;3.87;3.47;;;15.30;93.40;;;;;;5131224;28;20512;-58
2022/06/07 04:14:47;;;;;;;2.93;2.60;;;15.30;93.30;;;;;;5131011;27;20477;-57
2022/06/07 04:17:15;;;;;;;4.53;3.03;;;15.30;93.30;;;;;;5131117;28;20548;-58
2022/06/07 04:19:43;;;;;;;3.20;2.77;;;15.40;93.20;;;;;;5131074;28;20536;-58
2022/06/07 04:22:12;;;;;;;5.60;3.37;;;15.50;93.20;;;;;;5131317;28;20474;-58
2022/06/07 04:24:39;;;;;;;3.50;2.90;;;15.50;93.10;;;;;;5131532;28;20440;-58
2022/06/07 04:27:08;;;;;;;5.20;3.03;;;15.50;92.90;;;;;;5131300;28;20849;-57
2022/06/07 04:29:36;;;;;;;3.30;2.80;;;15.60;92.90;;;;;;5131157;27;20476;-58
2022/06/07 04:32:03;;;;;;;3.80;2.40;;;15.60;92.80;;;;;;5131312;27;20460;-58
2022/06/07 04:34:31;;;;;;;3.77;3.37;;;15.60;93.00;;;;;;5131260;27;20532;-58
2022/06/07 04:36:58;;;;;;;3.23;2.50;;;15.60;92.70;;;;;;5130617;28;20984;-58
2022/06/07 04:39:25;;;;;;;4.20;3.30;;;15.70;92.70;;;;;;5131174;27;20529;-58
2022/06/07 04:41:53;;;;;;;4.73;2.40;;;15.70;92.70;;;;;;5130831;27;20453;-58
2022/06/07 04:44:21;;;;;;;2.60;2.40;;;15.70;92.60;;;;;;5130954;28;20542;-58
2022/06/07 04:46:49;;;;;;;3.63;3.33;;;15.70;92.60;;;;;;5130485;28;20444;-59
2022/06/07 04:49:16;;;;;;;3.30;2.87;;;15.80;92.60;;;;;;5130435;28;21014;-58
2022/06/07 04:51:44;;;;;;;3.10;2.30;;;15.80;92.50;;;;;;5130637;28;20535;-58
2022/06/07 04:54:12;;;;;;;3.50;3.20;;;15.90;92.40;;;;;;5130679;28;20528;-58
2022/06/07 04:56:39;;;;;;;3.53;2.57;;;15.90;92.40;;;;;;5130373;28;21054;-58
2022/06/07 04:59:08;;;;;;;2.77;2.33;;;15.90;92.30;;;;;;5131196;28;20559;-58
2022/06/07 05:01:38;;;;;;;5.30;3.50;;;15.90;92.30;;;;;;5127953;28;20449;-59
2022/06/07 05:04:07;;;;;;;2.57;2.37;;;15.90;92.40;;;;;;5119142;27;20476;-59
2022/06/07 05:06:36;;;;;;;2.50;2.30;;;16.00;92.40;;;;;;5116525;28;20514;-58
2022/06/07 05:09:06;;;;;;;3.03;2.40;;;16.10;92.20;;;;;;5116886;27;20477;-58
2022/06/07 05:11:34;;;;;;;2.97;2.23;;;16.30;92.20;;;;;;5114160;27;20524;-58
2022/06/07 05:14:03;;;;;;;3.97;3.10;;;16.50;92.00;;;;;;5111676;28;20515;-58
2022/06/07 05:16:31;;;;;;;10.30;2.37;;;16.60;91.50;;;;;;5128067;28;20477;-57
2022/06/07 05:19:00;;;;;;;4.10;2.70;;;16.80;91.20;;;;;;5116838;28;20478;-58
2022/06/07 05:21:28;;;;;;;4.03;2.47;;;17.00;90.90;;;;;;5103800;28;20544;-58
2022/06/07 05:23:55;;;;;;;2.70;2.43;;;17.20;90.50;;;;;;5102276;28;20518;-58
2022/06/07 05:26:28;;;;;;;2.80;2.13;;;17.60;89.90;;;;;;5110447;27;20590;-57
2022/06/07 05:28:55;;;;;;;3.20;2.30;;;18.10;87.90;;;;;;5116225;27;20472;-57
2022/06/07 05:31:24;;;;;;;3.27;1.90;;;18.70;85.00;;;;;;5109161;28;20434;-57
2022/06/07 05:33:51;;;;;;;5.57;3.10;;;19.20;81.40;;;;;;5095733;28;20472;-56
2022/06/07 05:36:21;;;;;;;3.40;3.00;;;19.60;78.20;;;;;;5095506;28;20438;-56
2022/06/07 05:38:49;;;;;;;2.63;2.30;;;20.00;75.30;;;;;;5095921;28;20544;-56
2022/06/07 05:41:20;;;;;;;4.00;2.80;;;20.40;72.80;;;;;;5095565;28;20461;-57
2022/06/07 05:43:48;;;;;;;4.20;1.93;;;20.70;70.30;;;;;;5104089;28;20487;-56
2022/06/07 05:46:16;;;;;;;3.90;2.37;;;21.00;68.10;;;;;;5116227;27;20924;-56
2022/06/07 05:48:43;;;;;;;3.87;2.77;;;21.20;66.20;;;;;;5115780;28;20473;-56
2022/06/07 05:51:10;;;;;;;3.47;2.27;;;21.40;64.40;;;;;;5115824;28;20441;-56
2022/06/07 05:53:40;;;;;;;2.90;2.20;;;21.50;63.10;;;;;;5115395;28;20835;-55
2022/06/07 05:56:09;;;;;;;2.33;1.80;;;21.60;61.80;;;;;;5114740;28;20452;-56
2022/06/07 05:58:36;;;;;;;6.43;2.50;;;21.70;61.00;;;;;;5115661;28;20814;-57
2022/06/07 06:01:04;;;;;;;3.90;2.10;;;21.90;60.10;;;;;;5112951;28;20515;-57
2022/06/07 06:03:32;;;;;;;1.97;1.77;;;22.00;59.40;;;;;;5095664;27;20839;-57
2022/06/07 06:05:59;;;;;;;3.20;2.47;;;22.10;58.60;;;;;;5098762;28;20461;-58
2022/06/07 06:11:17;;;;;;;5.53;2.50;;;22.30;57.50;;;;;;5110147;28;20502;-59
2022/06/07 06:13:45;;;;;;;5.27;2.00;;;22.40;56.20;;;;;;5104122;28;20593;-60
2022/06/07 06:16:15;;;;;;;4.80;2.70;;;22.30;55.40;;;;;;5110247;28;20484;-59
2022/06/07 06:18:42;;;;;;;3.50;2.33;;;21.80;55.60;;;;;;5104827;28;20449;-59
2022/06/07 06:21:10;;;;;;;3.77;1.80;;;21.40;56.00;;;;;;5105423;28;20536;-59
2022/06/07 06:23:37;;;;;;;5.63;2.93;;;21.10;56.50;;;;;;5114963;28;20510;-60
2022/06/07 06:26:08;;;;;;;2.80;1.83;;;20.80;57.00;;;;;;5109679;28;20547;-60
2022/06/07 06:28:38;;;;;;;4.77;2.60;;;20.70;57.50;;;;;;5102714;28;20840;-60
2022/06/07 06:31:07;;;;;;;3.20;1.63;;;20.60;57.50;;;;;;5102366;28;20461;-59
2022/06/07 06:33:38;;;;;;;4.30;2.47;;;20.60;57.60;;;;;;5103875;28;20957;-59
2022/06/07 06:36:07;;;;;;;5.30;2.00;;;20.40;57.70;;;;;;5113387;28;20446;-59
2022/06/07 06:38:35;;;;;;;4.77;2.00;;;20.20;58.20;;;;;;5114547;28;20441;-59
2022/06/07 06:41:09;;;;;;;2.17;1.53;;;20.20;58.70;;;;;;5114830;28;20438;-59
2022/06/07 06:43:38;;;;;;;3.77;2.33;;;20.10;58.80;;;;;;5113452;28;21008;-59
2022/06/07 06:46:06;;;;;;;3.33;2.03;;;20.00;58.90;;;;;;5110295;28;20953;-58
2022/06/07 06:48:33;;;;;;;2.57;2.37;;;19.90;59.10;;;;;;5114477;28;20578;-61
2022/06/07 06:51:01;;;;;;;3.33;2.00;;;19.90;59.40;;;;;;5113622;28;20827;-59
2022/06/07 06:53:28;;;;;;;4.93;2.13;;;19.90;59.40;;;;;;5096359;28;20520;-61
2022/06/07 06:55:56;;;;;;;3.93;2.53;;;19.90;59.20;;;;;;5093791;28;20503;-59
2022/06/07 06:58:25;;;;;;;6.17;2.30;;;19.90;59.20;;;;;;5107051;28;20982;-60
2022/06/07 07:01:02;;;;;;;2.73;1.90;;;19.90;59.30;;;;;;5114697;28;20855;-59
2022/06/07 07:03:33;;;;;;;3.30;1.93;;;19.90;59.40;;;;;;5114535;28;20460;-61
2022/06/07 07:06:01;;;;;;;2.70;1.70;;;19.80;59.50;;;;;;5113602;28;20526;-60
2022/06/07 07:08:29;;;;;;;5.93;2.70;;;19.90;59.40;;;;;;5105787;28;20594;-60
2022/06/07 07:11:05;;;;;;;4.40;2.10;;;19.90;59.10;;;;;;5094173;28;20509;-59
2022/06/07 07:13:33;;;;;;;4.77;2.00;;;20.00;58.60;;;;;;5097052;28;20959;-59
2022/06/07 07:16:02;;;;;;;5.77;2.60;;;20.00;58.30;;;;;;5113361;28;21019;-59
2022/06/07 07:18:29;;;;;;;4.63;1.70;;;20.10;58.30;;;;;;5113511;28;20447;-60
2022/06/07 07:20:56;;;;;;;2.77;2.07;;;20.10;58.10;;;;;;5113978;28;20950;-60
2022/06/07 07:23:24;;;;;;;4.40;2.33;;;20.20;57.80;;;;;;5112674;28;20472;-60
2022/06/07 07:25:52;;;;;;;2.03;1.50;;;20.30;57.40;;;;;;5113843;28;20879;-61
2022/06/07 07:28:19;;;;;;;3.07;1.90;;;20.40;57.00;;;;;;5113403;28;21025;-59
2022/06/07 07:30:47;;;;;;;2.53;1.57;;;20.60;56.80;;;;;;5113719;28;20484;-60
2022/06/07 07:33:16;;;;;;;3.03;1.47;;;20.60;54.80;;;;;;5112752;28;20565;-60
2022/06/07 07:35:45;;;;;;;2.37;1.63;;;20.80;53.60;;;;;;5113686;28;20449;-60
2022/06/07 07:38:12;;;;;;;2.40;1.53;;;20.90;52.90;;;;;;5113452;28;20816;-60
2022/06/07 07:40:41;;;;;;;3.13;1.53;;;21.10;52.00;;;;;;5112542;28;20454;-60
2022/06/07 07:43:09;;;;;;;4.43;1.97;;;21.10;51.30;;;;;;5114361;28;20463;-58
2022/06/07 07:45:37;;;;;;;2.90;1.43;;;21.10;51.10;;;;;;5114307;28;20501;-58
2022/06/07 07:48:05;;;;;;;3.77;1.50;;;21.00;50.70;;;;;;5114577;28;20459;-57
2022/06/07 07:50:34;;;;;;;3.43;1.80;;;20.90;50.70;;;;;;5112638;28;20547;-59
2022/06/07 07:53:01;;;;;;;5.33;1.63;;;20.80;50.60;;;;;;5113432;28;20494;-59
2022/06/07 07:55:29;;;;;;;3.83;1.97;;;20.70;50.30;;;;;;5112553;28;20875;-59
2022/06/07 07:57:57;;;;;;;1.73;1.20;;;20.70;50.50;;;;;;5113373;28;20538;-57
2022/06/07 08:00:24;;;;;;;3.00;1.60;;;20.80;50.50;;;;;;5113016;28;20483;-60
2022/06/07 08:02:52;;;;;;;2.63;1.50;;;21.10;50.00;;;;;;5112939;28;20546;-59
2022/06/07 08:05:20;;;;;;;4.93;1.50;;;21.20;48.90;;;;;;5112183;28;20540;-60
2022/06/07 08:07:48;;;;;;;5.80;1.40;;;21.20;48.20;;;;;;5112826;28;20459;-59
2022/06/07 08:10:16;;;;;;;3.10;1.87;;;21.20;47.90;;;;;;5113356;28;20780;-58
2022/06/07 08:12:43;;;;;;;3.60;1.20;;;21.10;47.60;;;;;;5110848;28;20543;-59
2022/06/07 08:15:11;;;;;;;2.40;1.60;;;21.10;47.60;;;;;;5112630;28;20545;-58
2022/06/07 08:17:39;;;;;;;1.57;1.27;;;21.10;47.40;;;;;;5113171;28;20511;-58
2022/06/07 08:20:07;;;;;;;5.57;1.80;;;21.10;47.00;;;;;;5111501;28;20829;-60
2022/06/07 08:22:34;;;;;;;2.60;1.30;;;21.20;46.90;;;;;;5112968;28;20957;-59
2022/06/07 08:25:03;;;;;;;3.40;1.30;;;21.50;46.40;;;;;;5111987;28;20446;-59
2022/06/07 08:27:31;;;;;;;1.47;1.10;;;21.70;45.20;;;;;;5112836;28;20445;-58
2022/06/07 08:29:58;;;;;;;2.67;1.10;;;21.80;44.40;;;;;;5112930;28;20577;-57
2022/06/07 08:32:25;;;;;;;2.33;1.30;;;22.00;44.00;;;;;;5111679;28;20506;-58
2022/06/07 08:37:48;;;;;;;1.57;1.27;;;22.30;43.40;;;;;;5048995;28;20428;-58
2022/06/07 08:40:28;;;;;;;4.60;1.57;;;22.50;43.20;;;;;;5097490;28;20495;-58
2022/06/07 08:42:58;;;;;;;2.50;1.33;;;22.70;43.20;;;;;;5112002;28;21057;-59
2022/06/07 08:45:29;;;;;;;5.17;1.30;;;22.70;43.20;;;;;;5111214;28;20910;-57
2022/06/07 08:48:01;;;;;;;5.07;1.67;;;22.60;43.50;;;;;;5112727;28;20422;-57
2022/06/07 08:50:31;;;;;;;3.73;1.80;;;22.60;43.80;;;;;;5111305;28;20465;-57
2022/06/07 08:53:02;;;;;;;4.50;1.70;;;22.60;44.00;;;;;;5112320;28;20461;-57
2022/06/07 08:55:36;;;;;;;5.10;1.70;;;22.60;44.20;;;;;;5113988;28;20826;-55
2022/06/07 08:58:16;;;;;;;4.80;1.73;;;22.60;44.40;;;;;;5115321;28;20581;-56
2022/06/07 09:00:49;;;;;;;4.33;1.80;;;22.50;44.60;;;;;;5116111;28;20440;-57
2022/06/07 09:03:45;;;;;;;3.20;1.57;;;22.40;44.80;;;;;;5115983;28;20555;-57
2022/06/07 09:06:20;;;;;;;3.50;1.60;;;22.40;45.10;;;;;;5113529;28;20453;-57
2022/06/07 09:08:50;;;;;;;2.97;2.13;;;22.20;45.40;;;;;;5116253;28;20445;-57
2022/06/07 09:14:19;;;;;;;1.70;1.60;;;22.10;46.30;;;;;;5096133;28;20401;-58
2022/06/07 09:16:47;;;;;;;1.90;1.53;;;22.00;46.60;;;;;;5115068;28;20528;-58
2022/06/07 09:19:20;;;;;;;1.90;1.80;;;22.10;47.00;;;;;;5116193;28;20982;-58
2022/06/07 09:21:49;;;;;;;3.57;1.57;;;22.10;47.00;;;;;;5115776;28;20417;-58
2022/06/07 09:24:26;;;;;;;3.27;1.60;;;22.10;46.90;;;;;;5115263;28;21047;-57
2022/06/07 09:27:05;;;;;;;3.20;1.60;;;22.30;46.80;;;;;;5116296;28;20436;-58
2022/06/07 09:29:36;;;;;;;2.60;1.30;;;22.30;46.30;;;;;;5115696;28;20514;-58
2022/06/07 09:32:11;;;;;;;2.77;1.40;;;22.30;45.90;;;;;;5115594;28;20468;-58
2022/06/07 09:34:50;;;;;;;1.27;1.17;;;22.20;45.50;;;;;;5115811;28;20938;-57
2022/06/07 09:37:21;;;;;;;2.80;1.37;;;22.20;44.90;;;;;;5115661;28;20527;-57
2022/06/07 09:39:55;;;;;;;1.83;1.57;;;22.20;44.30;;;;;;5115743;28;20461;-58
2022/06/07 09:42:28;;;;;;;2.30;1.40;;;22.20;43.90;;;;;;5113374;28;20496;-57
2022/06/07 09:45:00;;;;;;;2.50;1.30;;;22.40;43.30;;;;;;5115154;28;20453;-57
2022/06/07 09:47:29;;;;;;;2.23;1.20;;;22.60;42.60;;;;;;5115552;28;20789;-57
2022/06/07 09:49:59;;;;;;;5.97;1.30;;;22.70;41.90;;;;;;5114425;27;20515;-59
2022/06/07 09:52:29;;;;;;;2.00;1.00;;;22.90;41.60;;;;;;5114838;28;20991;-56
2022/06/07 09:54:59;;;;;;;4.60;1.20;;;23.10;41.10;;;;;;5115949;28;20472;-56
2022/06/07 09:57:53;;;;;;;2.40;1.27;;;23.20;40.90;;;;;;5114599;28;20457;-58
2022/06/07 10:00:25;;;;;;;4.97;1.47;;;23.40;40.70;;;;;;5115180;28;20474;-57
2022/06/07 10:03:22;;;;;;;4.03;1.27;;;23.80;40.50;;;;;;5114844;28;20457;-58
2022/06/07 10:05:59;;;;;;;2.40;1.27;;;24.00;40.20;;;;;;5114128;28;20885;-57
2022/06/07 10:08:40;;;;;;;2.23;1.30;;;24.10;40.20;;;;;;5114190;28;20472;-58
2022/06/07 10:11:16;;;;;;;3.13;1.20;;;24.50;40.00;;;;;;5115050;28;20461;-58
2022/06/07 10:14:08;;;;;;;1.70;1.40;;;24.80;39.50;;;;;;5114957;28;21041;-55
2022/06/07 10:16:43;;;;;;;1.80;1.47;;;24.90;39.30;;;;;;5113543;28;20477;-58
2022/06/07 10:19:35;;;;;;;1.80;1.17;;;25.10;39.20;;;;;;5114862;28;20460;-58
2022/06/07 10:22:17;;;;;;;4.30;1.70;;;25.40;39.00;;;;;;5090969;28;20552;-57
2022/06/07 10:24:58;;;;;;;3.23;1.13;;;25.50;38.70;;;;;;5110387;27;20935;-58
2022/06/07 10:27:33;;;;;;;3.70;1.70;;;25.40;38.60;;;;;;5105216;27;21046;-57
2022/06/07 10:30:19;;;;;;;2.00;1.50;;;25.50;38.80;;;;;;5118896;27;20460;-57
2022/06/07 10:32:55;;;;;;;2.03;1.53;;;25.60;38.70;;;;;;5116834;27;20457;-56
2022/06/07 10:35:29;;;;;;;2.63;1.20;;;25.50;38.90;;;;;;5113865;28;20417;-57
2022/06/07 10:38:11;;;;;;;4.27;2.03;;;25.70;38.80;;;;;;5114218;28;20421;-57
2022/06/07 10:40:43;;;;;;;2.20;1.87;;;25.60;38.60;;;;;;5113143;28;20433;-56
2022/06/07 10:43:17;;;;;;;2.27;2.00;;;25.60;39.00;;;;;;5114220;28;20457;-57
2022/06/07 10:45:47;;;;;;;2.10;1.80;;;25.70;39.30;;;;;;5113847;28;20456;-58
2022/06/07 10:48:20;;;;;;;4.17;2.03;;;25.80;38.90;;;;;;5115166;28;20514;-59
2022/06/07 10:50:53;;;;;;;2.53;1.83;;;25.90;38.90;;;;;;5093946;28;21041;-58
2022/06/07 10:53:25;;;;;;;2.20;2.00;;;25.70;39.00;;;;;;5102166;28;21029;-58
2022/06/07 10:55:58;;;;;;;10.77;2.10;;;25.70;39.20;;;;;;5114488;28;20839;-60
2022/06/07 10:58:40;;;;;;;2.53;1.70;;;25.80;39.50;;;;;;5114702;28;20437;-59
2022/06/07 11:01:15;;;;;;;2.10;1.63;;;26.00;39.30;;;;;;5113461;28;20819;-59
2022/06/07 11:04:08;;;;;;;1.40;1.30;;;26.00;39.40;;;;;;5113355;28;20501;-59
2022/06/07 11:09:38;;;;;;;2.40;1.87;;;25.90;39.20;;;;;;5113170;28;20436;-56
2022/06/07 11:12:12;;;;;;;2.20;2.00;;;25.90;39.30;;;;;;5093022;28;21007;-58
2022/06/07 11:14:51;;;;;;;2.27;1.80;;;25.90;39.40;;;;;;5093010;28;20475;-59
2022/06/07 11:17:33;;;;;;;4.73;1.77;;;25.90;39.40;;;;;;5092537;28;20426;-57
2022/06/07 11:20:02;;;;;;;2.30;1.80;;;25.70;39.30;;;;;;5112042;28;20492;-57
2022/06/07 11:22:36;;;;;;;3.87;1.87;;;25.50;39.50;;;;;;5113646;28;20461;-57
2022/06/07 11:25:30;;;;;;;2.13;1.87;;;25.30;39.70;;;;;;5113827;28;20426;-56
2022/06/07 11:28:00;;;;;;;2.13;1.90;;;25.30;40.10;;;;;;5112702;28;20484;-57
2022/06/07 11:30:43;;;;;;;2.33;1.50;;;25.30;40.20;;;;;;5112797;28;20568;-55
2022/06/07 11:33:38;;;;;;;4.50;2.20;;;25.30;40.30;;;;;;5113377;28;20526;-55
2022/06/07 11:36:23;;;;;;;2.43;1.90;;;25.30;40.50;;;;;;5112654;28;20425;-57
2022/06/07 11:39:32;;;;;;;4.50;1.60;;;25.30;40.60;;;;;;5111090;28;20457;-57
2022/06/07 11:42:29;;;;;;;3.17;1.93;;;25.10;40.60;;;;;;5095810;28;20536;-56
2022/06/07 11:45:19;;;;;;;4.00;2.00;;;24.90;41.50;;;;;;5111910;28;20956;-57
2022/06/07 11:48:10;;;;;;;2.37;2.17;;;24.90;41.70;;;;;;5112300;28;20827;-57
2022/06/07 11:50:46;;;;;;;4.97;1.90;;;25.10;41.70;;;;;;5114578;28;20553;-56
2022/06/07 11:53:29;;;;;;;3.20;1.93;;;25.30;41.50;;;;;;5115671;28;20788;-57
2022/06/07 11:56:12;;;;;;;2.10;1.90;;;25.10;41.20;;;;;;5112458;28;20469;-58
2022/06/07 11:58:54;;;;;;;3.07;1.60;;;24.90;41.50;;;;;;5105342;28;20442;-58
2022/06/07 12:01:32;;;;;;;4.83;1.83;;;25.10;41.50;;;;;;5113255;28;20607;-57
2022/06/07 12:04:31;;;;;;;2.03;1.93;;;25.10;41.40;;;;;;5112730;28;21025;-58
2022/06/07 12:07:08;;;;;;;4.03;2.30;;;24.70;42.10;;;;;;5105930;28;20994;-58
2022/06/07 12:09:38;;;;;;;2.83;2.30;;;24.30;42.70;;;;;;5112677;28;20488;-58
2022/06/07 12:12:22;;;;;;;2.80;2.20;;;24.40;42.70;;;;;;5112725;28;20962;-57
2022/06/07 12:14:53;;;;;;;3.00;2.37;;;24.80;42.30;;;;;;5111842;28;20437;-56
2022/06/07 12:17:25;;;;;;;4.83;2.60;;;25.30;41.60;;;;;;5112841;28;20426;-56
2022/06/07 12:19:53;;;;;;;2.43;2.00;;;25.90;40.80;;;;;;5112719;28;20876;-55
2022/06/07 12:22:25;;;;;;;2.80;2.10;;;26.20;40.20;;;;;;5111488;28;20480;-56
2022/06/07 12:24:56;;;;;;;3.10;2.37;;;26.70;39.70;;;;;;5113105;28;20418;-57
2022/06/07 12:27:30;;;;;;;2.70;2.40;;;26.90;39.10;;;;;;5112700;28;20479;-57
2022/06/07 12:30:03;;;;;;;2.50;2.23;;;26.80;38.70;;;;;;5112735;28;20532;-57
2022/06/07 12:32:33;;;;;;;6.83;2.50;;;26.50;39.20;;;;;;5116632;28;20831;-57
2022/06/07 12:35:15;;;;;;;4.73;2.00;;;26.40;39.50;;;;;;5116858;28;20502;-56
2022/06/07 12:37:47;;;;;;;3.77;2.00;;;26.60;39.40;;;;;;5116376;28;20437;-57
2022/06/07 12:40:35;;;;;;;2.33;1.90;;;27.00;39.10;;;;;;5117395;28;20432;-56
2022/06/07 12:43:04;;;;;;;2.10;1.90;;;27.00;38.50;;;;;;5116298;28;20836;-57
2022/06/07 12:45:34;;;;;;;2.70;2.10;;;26.60;38.90;;;;;;5116665;28;20435;-56
2022/06/07 12:48:10;;;;;;;8.90;2.40;;;26.10;39.40;;;;;;5116561;28;20939;-57
2022/06/07 12:50:41;;;;;;;3.10;2.03;;;25.70;39.90;;;;;;5116777;28;20474;-57
2022/06/07 12:53:20;;;;;;;4.57;2.27;;;25.30;40.60;;;;;;5115280;28;20468;-58
2022/06/07 12:55:56;;;;;;;4.27;3.20;;;25.20;41.30;;;;;;5096720;28;20517;-57
2022/06/07 12:58:26;;;;;;;3.90;3.10;;;25.00;41.50;;;;;;5096093;28;20426;-57
2022/06/07 13:00:55;;;;;;;2.60;2.40;;;24.70;41.80;;;;;;5096219;28;20443;-56
2022/06/07 13:03:27;;;;;;;3.20;2.90;;;24.40;42.40;;;;;;5112387;28;20534;-57
2022/06/07 13:05:59;;;;;;;4.60;3.13;;;23.90;43.20;;;;;;5116111;28;20437;-57
2022/06/07 13:08:36;;;;;;;3.00;2.80;;;23.50;44.60;;;;;;5115952;28;20840;-59
2022/06/07 13:11:05;;;;;;;4.03;3.73;;;23.20;46.00;;;;;;5115602;28;20468;-58
2022/06/07 13:13:35;;;;;;;5.30;3.23;;;22.90;47.80;;;;;;5115817;28;20518;-58
2022/06/07 13:16:15;;;;;;;3.53;3.23;;;22.70;48.00;;;;;;5116286;28;20422;-58
2022/06/07 13:18:44;;;;;;;3.90;3.30;;;22.60;48.40;;;;;;5116222;28;20493;-56
2022/06/07 13:21:18;;;;;;;4.20;3.23;;;22.40;48.70;;;;;;5115492;28;20520;-58
2022/06/07 13:23:53;;;;;;;5.07;3.70;;;22.40;49.30;;;;;;5115664;28;20465;-58
2022/06/07 13:26:24;;;;;;;4.10;3.70;;;22.20;49.80;;;;;;5115866;28;20432;-58
2022/06/07 13:29:10;;;;;;;5.40;4.40;;;21.90;50.40;;;;;;5115400;28;20479;-58